Time;durP1;ratioP1;P1;durP2;ratioP2;P2;SDS_P1;SDS_P2;PMS_P1;PMS_P2;Temp;Humidity;BMP_temperature;BMP_pressure;BME280_temperature;BME280_humidity;BME280_pressure;Samples;Min_cycle;Max_cycle;Signal;HPM_P1;HPM_P2
2023/09/07 00:00:11;;;;;;;6.28;2.25;;;;;;;;;;6259368;28;20295;-68
2023/09/07 00:03:15;;;;;;;13.90;2.63;;;;;;;;;;6259862;28;20260;-71
2023/09/07 00:06:20;;;;;;;12.20;2.05;;;;;;;;;;6259608;28;20287;-70
2023/09/07 00:09:26;;;;;;;11.57;2.30;;;;;;;;;;6259097;28;20300;-70
2023/09/07 00:12:30;;;;;;;12.80;2.30;;;;;;;;;;6259583;28;20296;-70
2023/09/07 00:15:37;;;;;;;7.30;2.10;;;;;;;;;;6259032;28;20313;-70
2023/09/07 00:18:41;;;;;;;2.55;1.70;;;;;;;;;;6259466;28;20299;-73
2023/09/07 00:21:45;;;;;;;2.15;1.75;;;;;;;;;;6258448;28;20291;-70
2023/09/07 00:24:50;;;;;;;5.05;2.00;;;;;;;;;;6258532;28;20299;-69
2023/09/07 00:27:54;;;;;;;2.75;1.60;;;;;;;;;;6259496;28;20295;-71
2023/09/07 00:30:58;;;;;;;19.63;2.20;;;;;;;;;;6258519;28;20287;-70
2023/09/07 00:34:02;;;;;;;13.95;2.08;;;;;;;;;;6258485;28;20592;-70
2023/09/07 00:37:06;;;;;;;5.82;1.70;;;;;;;;;;6259104;28;20299;-70
2023/09/07 00:40:11;;;;;;;9.88;2.25;;;;;;;;;;6274020;28;20291;-71
2023/09/07 00:43:15;;;;;;;4.13;1.88;;;;;;;;;;6258654;28;20296;-70
2023/09/07 00:46:20;;;;;;;4.38;1.80;;;;;;;;;;6256768;28;20300;-70
2023/09/07 00:49:25;;;;;;;4.53;1.85;;;;;;;;;;6258330;28;20287;-71
2023/09/07 00:52:29;;;;;;;3.88;2.00;;;;;;;;;;6258826;28;20314;-69
2023/09/07 00:55:35;;;;;;;8.50;1.63;;;;;;;;;;6258075;28;20315;-69
2023/09/07 00:58:39;;;;;;;6.75;1.90;;;;;;;;;;6257624;28;20299;-71
2023/09/07 01:01:44;;;;;;;12.13;2.03;;;;;;;;;;6256663;28;20383;-70
2023/09/07 01:04:48;;;;;;;8.07;2.17;;;;;;;;;;6273356;28;20295;-71
2023/09/07 01:07:55;;;;;;;11.13;1.83;;;;;;;;;;6257572;28;20296;-70
2023/09/07 01:11:00;;;;;;;10.70;2.28;;;;;;;;;;6273112;28;20295;-70
2023/09/07 01:14:05;;;;;;;5.60;1.90;;;;;;;;;;6273448;28;20299;-70
2023/09/07 01:17:10;;;;;;;2.22;1.85;;;;;;;;;;6259296;28;20299;-70
2023/09/07 01:20:16;;;;;;;5.00;1.77;;;;;;;;;;6259007;28;20300;-69
2023/09/07 01:23:22;;;;;;;17.70;1.83;;;;;;;;;;6274195;28;20294;-71
2023/09/07 01:26:26;;;;;;;7.15;1.83;;;;;;;;;;6259289;28;20296;-70
2023/09/07 01:29:30;;;;;;;10.95;1.90;;;;;;;;;;6257549;28;20316;-70
2023/09/07 01:32:34;;;;;;;11.55;2.45;;;;;;;;;;6259364;28;20611;-69
2023/09/07 01:35:39;;;;;;;3.22;1.85;;;;;;;;;;6259089;28;20299;-71
2023/09/07 01:38:44;;;;;;;4.90;1.67;;;;;;;;;;6278329;28;20299;-70
2023/09/07 01:41:49;;;;;;;7.20;1.92;;;;;;;;;;6263186;28;20491;-69
2023/09/07 01:44:52;;;;;;;11.93;1.98;;;;;;;;;;6263120;28;20323;-68
2023/09/07 01:47:56;;;;;;;3.40;2.05;;;;;;;;;;6263442;28;20499;-70
2023/09/07 01:51:00;;;;;;;6.00;2.03;;;;;;;;;;6277543;28;20295;-70
2023/09/07 01:54:10;;;;;;;6.22;1.70;;;;;;;;;;6262841;28;20303;-69
2023/09/07 01:57:14;;;;;;;6.18;1.90;;;;;;;;;;6262996;28;20272;-71
2023/09/07 02:00:18;;;;;;;6.82;1.80;;;;;;;;;;6261986;28;20291;-72
2023/09/07 02:03:22;;;;;;;10.80;2.40;;;;;;;;;;6279928;28;20287;-70
2023/09/07 02:06:26;;;;;;;12.57;2.03;;;;;;;;;;6278934;28;20580;-71
2023/09/07 02:09:32;;;;;;;5.95;1.77;;;;;;;;;;6261837;28;20303;-69
2023/09/07 02:12:36;;;;;;;2.05;1.77;;;;;;;;;;6263223;28;20296;-70
2023/09/07 02:15:40;;;;;;;7.95;1.90;;;;;;;;;;6262097;28;20287;-69
2023/09/07 02:18:46;;;;;;;6.10;1.83;;;;;;;;;;6277425;28;20592;-71
2023/09/07 02:21:52;;;;;;;3.53;1.73;;;;;;;;;;6262870;28;20297;-71
2023/09/07 02:24:58;;;;;;;3.70;1.65;;;;;;;;;;6277724;28;20319;-71
2023/09/07 02:28:02;;;;;;;11.40;1.65;;;;;;;;;;6261759;28;20299;-70
2023/09/07 02:31:08;;;;;;;2.72;1.60;;;;;;;;;;6277524;28;20303;-71
2023/09/07 02:34:11;;;;;;;2.85;1.45;;;;;;;;;;6260893;28;20304;-70
2023/09/07 02:37:16;;;;;;;5.70;2.03;;;;;;;;;;6262471;28;20307;-71
2023/09/07 02:40:21;;;;;;;8.45;1.60;;;;;;;;;;6260929;28;20283;-70
2023/09/07 02:43:25;;;;;;;4.43;1.65;;;;;;;;;;6277684;28;20492;-70
2023/09/07 02:46:29;;;;;;;5.78;1.60;;;;;;;;;;6261120;28;20307;-70
2023/09/07 02:49:33;;;;;;;4.53;2.13;;;;;;;;;;6276622;28;20295;-70
2023/09/07 02:52:37;;;;;;;5.53;2.13;;;;;;;;;;6262181;28;20304;-71
2023/09/07 02:55:43;;;;;;;9.20;1.80;;;;;;;;;;6277203;28;20592;-71
2023/09/07 02:58:48;;;;;;;6.05;1.88;;;;;;;;;;6259902;28;20292;-70
2023/09/07 03:01:52;;;;;;;6.70;1.70;;;;;;;;;;6258948;28;20294;-70
2023/09/07 03:04:58;;;;;;;2.25;1.70;;;;;;;;;;6258642;28;20319;-71
2023/09/07 03:08:03;;;;;;;3.70;2.10;;;;;;;;;;6275322;28;20299;-70
2023/09/07 03:11:10;;;;;;;2.92;1.60;;;;;;;;;;6259915;28;20295;-70
2023/09/07 03:14:14;;;;;;;3.65;2.20;;;;;;;;;;6258690;28;20295;-72
2023/09/07 03:17:20;;;;;;;2.40;1.80;;;;;;;;;;6258898;28;20291;-69
2023/09/07 03:20:25;;;;;;;1.95;1.77;;;;;;;;;;6258406;28;20292;-69
2023/09/07 03:23:29;;;;;;;5.13;2.00;;;;;;;;;;6259195;28;20304;-70
2023/09/07 03:26:35;;;;;;;5.22;1.75;;;;;;;;;;6259613;28;20296;-71
2023/09/07 03:29:39;;;;;;;5.40;2.03;;;;;;;;;;6259019;28;20287;-70
2023/09/07 03:32:43;;;;;;;2.58;1.63;;;;;;;;;;6275865;28;20640;-70
2023/09/07 03:35:47;;;;;;;4.80;1.80;;;;;;;;;;6259996;28;20310;-70
2023/09/07 03:38:51;;;;;;;5.55;1.80;;;;;;;;;;6258239;28;20291;-71
2023/09/07 03:41:56;;;;;;;2.00;1.75;;;;;;;;;;6260218;28;20287;-70
2023/09/07 03:45:00;;;;;;;4.20;1.98;;;;;;;;;;6258808;28;20297;-72
2023/09/07 03:48:05;;;;;;;5.60;1.98;;;;;;;;;;6258958;28;20276;-69
2023/09/07 03:51:10;;;;;;;3.58;1.90;;;;;;;;;;6258997;28;20276;-70
2023/09/07 03:54:14;;;;;;;3.65;2.10;;;;;;;;;;6259600;28;20295;-69
2023/09/07 03:57:19;;;;;;;1.58;1.58;;;;;;;;;;6258839;28;20296;-70
2023/09/07 04:00:23;;;;;;;4.22;2.10;;;;;;;;;;6257653;28;20304;-70
2023/09/07 04:03:27;;;;;;;5.25;2.30;;;;;;;;;;6259380;28;20299;-70
2023/09/07 04:06:32;;;;;;;9.43;1.75;;;;;;;;;;6275150;28;20463;-70
2023/09/07 04:09:36;;;;;;;2.17;1.70;;;;;;;;;;6274509;28;20307;-69
2023/09/07 04:12:41;;;;;;;5.55;2.10;;;;;;;;;;6259376;28;20283;-69
2023/09/07 04:15:46;;;;;;;5.35;2.13;;;;;;;;;;6274595;28;20299;-69
2023/09/07 04:18:52;;;;;;;3.03;2.55;;;;;;;;;;6274637;28;20307;-69
2023/09/07 04:21:57;;;;;;;3.33;2.88;;;;;;;;;;6274922;28;20331;-71
2023/09/07 04:25:02;;;;;;;3.72;3.05;;;;;;;;;;6257954;28;20295;-71
2023/09/07 04:28:07;;;;;;;7.03;3.67;;;;;;;;;;6258794;28;20315;-70
2023/09/07 04:31:11;;;;;;;6.78;3.85;;;;;;;;;;6258849;28;20287;-71
2023/09/07 04:34:15;;;;;;;9.95;4.00;;;;;;;;;;6273280;28;20529;-70
2023/09/07 04:37:19;;;;;;;3.78;3.47;;;;;;;;;;6257294;28;20299;-70
2023/09/07 04:40:23;;;;;;;4.82;3.95;;;;;;;;;;6258709;28;20383;-72
2023/09/07 04:43:28;;;;;;;5.47;3.88;;;;;;;;;;6273117;28;20476;-70
2023/09/07 04:46:33;;;;;;;8.23;4.57;;;;;;;;;;6274171;28;20308;-70
2023/09/07 04:49:37;;;;;;;7.47;4.18;;;;;;;;;;6256296;28;20299;-69
2023/09/07 04:52:41;;;;;;;5.45;4.32;;;;;;;;;;6259004;28;20307;-70
2023/09/07 04:55:45;;;;;;;5.68;4.80;;;;;;;;;;6256848;28;20299;-69
2023/09/07 04:58:51;;;;;;;6.57;4.55;;;;;;;;;;6273420;28;20291;-70
2023/09/07 05:01:54;;;;;;;6.93;4.60;;;;;;;;;;6273596;28;20296;-71
2023/09/07 05:04:58;;;;;;;4.47;4.07;;;;;;;;;;6258191;28;20307;-71
2023/09/07 05:08:03;;;;;;;9.30;4.43;;;;;;;;;;6273218;28;20323;-69
2023/09/07 05:11:08;;;;;;;6.35;4.50;;;;;;;;;;6258788;28;20295;-70
2023/09/07 05:14:13;;;;;;;5.32;3.65;;;;;;;;;;6262482;28;20299;-69
2023/09/07 05:17:17;;;;;;;8.73;3.85;;;;;;;;;;6262879;28;20354;-69
2023/09/07 05:20:21;;;;;;;5.65;3.95;;;;;;;;;;6263215;28;20300;-69
2023/09/07 05:23:26;;;;;;;4.40;4.05;;;;;;;;;;6262030;28;20307;-70
2023/09/07 05:26:31;;;;;;;4.43;3.90;;;;;;;;;;6261854;28;20617;-70
2023/09/07 05:29:36;;;;;;;5.53;4.22;;;;;;;;;;6262546;28;20311;-72
2023/09/07 05:32:41;;;;;;;8.50;3.85;;;;;;;;;;6262755;28;20466;-71
2023/09/07 05:35:46;;;;;;;13.15;4.00;;;;;;;;;;6277976;28;20303;-70
2023/09/07 05:38:51;;;;;;;8.70;3.85;;;;;;;;;;6261690;28;20307;-69
2023/09/07 05:41:54;;;;;;;4.10;3.20;;;;;;;;;;6262148;28;20300;-70
2023/09/07 05:44:59;;;;;;;5.65;3.58;;;;;;;;;;6260484;28;20608;-71
2023/09/07 05:48:04;;;;;;;3.55;3.22;;;;;;;;;;6276771;28;20299;-70
2023/09/07 05:51:08;;;;;;;6.20;3.33;;;;;;;;;;6260873;28;20268;-70
2023/09/07 05:54:12;;;;;;;3.10;3.00;;;;;;;;;;6260833;28;20603;-71
2023/09/07 05:57:17;;;;;;;9.75;3.45;;;;;;;;;;6261106;28;20283;-70
2023/09/07 06:00:23;;;;;;;6.82;3.00;;;;;;;;;;6262409;28;20287;-72
2023/09/07 06:03:27;;;;;;;12.40;3.40;;;;;;;;;;6260434;28;20299;-71
2023/09/07 06:06:31;;;;;;;3.60;2.70;;;;;;;;;;6261297;28;20307;-69
2023/09/07 06:09:36;;;;;;;4.70;2.72;;;;;;;;;;6259932;28;20312;-70
2023/09/07 06:12:40;;;;;;;4.07;2.50;;;;;;;;;;6261571;28;20317;-70
2023/09/07 06:15:46;;;;;;;5.78;2.75;;;;;;;;;;6277258;28;20292;-70
2023/09/07 06:18:50;;;;;;;5.10;2.53;;;;;;;;;;6260329;28;20304;-70
2023/09/07 06:21:53;;;;;;;2.25;2.05;;;;;;;;;;6261106;28;20327;-71
2023/09/07 06:24:57;;;;;;;6.10;2.40;;;;;;;;;;6259117;28;20303;-70
2023/09/07 06:28:01;;;;;;;4.72;2.17;;;;;;;;;;6259649;28;20304;-70
2023/09/07 06:31:07;;;;;;;3.70;2.40;;;;;;;;;;6259844;28;20315;-71
2023/09/07 06:34:11;;;;;;;2.63;2.05;;;;;;;;;;6259611;28;20308;-69
2023/09/07 06:37:15;;;;;;;3.90;1.75;;;;;;;;;;6260157;28;20303;-72
2023/09/07 06:40:19;;;;;;;3.17;2.00;;;;;;;;;;6259963;28;20279;-69
2023/09/07 06:43:27;;;;;;;7.88;1.80;;;;;;;;;;6276003;28;20529;-70
2023/09/07 06:46:34;;;;;;;5.30;1.70;;;;;;;;;;6276534;28;20299;-69
2023/09/07 06:49:38;;;;;;;1.67;1.58;;;;;;;;;;6258936;28;20296;-69
2023/09/07 06:52:43;;;;;;;3.58;1.85;;;;;;;;;;6276470;28;20284;-71
2023/09/07 06:55:47;;;;;;;4.10;1.77;;;;;;;;;;6258873;28;20295;-71
2023/09/07 06:58:51;;;;;;;3.22;1.50;;;;;;;;;;6259296;28;20620;-69
2023/09/07 07:01:59;;;;;;;4.43;1.60;;;;;;;;;;6259760;28;20302;-70
2023/09/07 07:05:04;;;;;;;1.63;1.55;;;;;;;;;;6258633;28;20312;-69
2023/09/07 07:08:09;;;;;;;2.33;1.60;;;;;;;;;;6258353;28;20484;-69
2023/09/07 07:11:13;;;;;;;2.28;1.70;;;;;;;;;;6258870;28;20300;-68
2023/09/07 07:14:16;;;;;;;2.88;1.67;;;;;;;;;;6274160;28;20287;-70
2023/09/07 07:17:22;;;;;;;2.75;1.60;;;;;;;;;;6260008;28;20291;-70
2023/09/07 07:20:26;;;;;;;6.28;2.10;;;;;;;;;;6275457;28;20304;-70
2023/09/07 07:23:30;;;;;;;5.93;1.90;;;;;;;;;;6260260;28;20291;-70
2023/09/07 07:26:34;;;;;;;3.15;1.70;;;;;;;;;;6259587;28;20304;-69
2023/09/07 07:29:38;;;;;;;3.58;1.40;;;;;;;;;;6259113;28;20238;-70
2023/09/07 07:32:43;;;;;;;3.25;1.80;;;;;;;;;;6258976;28;20336;-69
2023/09/07 07:35:48;;;;;;;6.55;1.83;;;;;;;;;;6257369;28;20310;-69
2023/09/07 07:38:52;;;;;;;2.05;1.52;;;;;;;;;;6260227;28;20307;-68
2023/09/07 07:41:56;;;;;;;3.63;1.50;;;;;;;;;;6260288;28;20296;-68
2023/09/07 07:45:00;;;;;;;5.25;1.90;;;;;;;;;;6271170;28;20382;-69
2023/09/07 07:48:07;;;;;;;2.15;1.60;;;;;;;;;;6260129;28;20295;-68
2023/09/07 07:51:15;;;;;;;2.13;1.90;;;;;;;;;;6261322;28;20280;-69
2023/09/07 07:54:22;;;;;;;2.97;1.65;;;;;;;;;;6258742;28;20545;-70
2023/09/07 07:57:26;;;;;;;4.97;1.90;;;;;;;;;;6259768;28;20303;-70
2023/09/07 08:00:31;;;;;;;7.07;2.22;;;;;;;;;;6257626;28;20292;-71
2023/09/07 08:03:36;;;;;;;2.03;1.80;;;;;;;;;;6272897;28;20588;-71
2023/09/07 08:06:41;;;;;;;2.25;1.80;;;;;;;;;;6260126;28;20300;-70
2023/09/07 08:09:45;;;;;;;4.00;1.80;;;;;;;;;;6257689;28;20300;-69
2023/09/07 08:12:54;;;;;;;5.55;2.50;;;;;;;;;;6259352;28;20283;-70
2023/09/07 08:15:58;;;;;;;3.25;1.77;;;;;;;;;;6273632;28;20300;-70
2023/09/07 08:19:03;;;;;;;2.45;1.75;;;;;;;;;;6273265;28;20479;-69
2023/09/07 08:22:08;;;;;;;2.15;1.92;;;;;;;;;;6255125;28;20287;-75
2023/09/07 08:25:14;;;;;;;3.33;1.75;;;;;;;;;;6258105;28;20295;-71
2023/09/07 08:28:18;;;;;;;1.70;1.70;;;;;;;;;;6266734;28;20299;-70
2023/09/07 08:31:22;;;;;;;6.25;2.45;;;;;;;;;;6256848;28;20304;-70
2023/09/07 08:34:27;;;;;;;3.75;1.67;;;;;;;;;;6258482;28;20299;-70
2023/09/07 08:37:31;;;;;;;1.98;1.80;;;;;;;;;;6257793;28;20591;-71
2023/09/07 08:40:35;;;;;;;5.60;2.20;;;;;;;;;;6258499;28;20292;-70
2023/09/07 08:43:46;;;;;;;2.78;1.85;;;;;;;;;;6258283;28;20491;-69
2023/09/07 08:46:50;;;;;;;2.22;1.63;;;;;;;;;;6259081;28;20300;-69
2023/09/07 08:49:57;;;;;;;1.73;1.63;;;;;;;;;;6258132;28;20295;-70
2023/09/07 08:53:03;;;;;;;6.63;1.77;;;;;;;;;;6273368;28;20302;-71
2023/09/07 08:56:09;;;;;;;2.60;1.65;;;;;;;;;;6258989;28;20465;-70
2023/09/07 08:59:15;;;;;;;1.80;1.67;;;;;;;;;;6258436;28;20307;-70
2023/09/07 09:02:18;;;;;;;1.73;1.63;;;;;;;;;;6258474;28;20303;-70
2023/09/07 09:05:25;;;;;;;3.00;1.80;;;;;;;;;;6258296;28;20308;-70
2023/09/07 09:08:28;;;;;;;1.88;1.67;;;;;;;;;;6258047;28;20312;-70
2023/09/07 09:11:33;;;;;;;1.75;1.75;;;;;;;;;;6257654;28;20311;-70
2023/09/07 09:14:37;;;;;;;2.97;1.88;;;;;;;;;;6257842;28;20311;-70
2023/09/07 09:17:40;;;;;;;1.98;1.88;;;;;;;;;;6258712;28;20308;-69
2023/09/07 09:20:46;;;;;;;2.72;2.03;;;;;;;;;;6258143;28;20303;-71
2023/09/07 09:23:51;;;;;;;2.88;1.58;;;;;;;;;;6258141;28;20323;-70
2023/09/07 09:26:55;;;;;;;1.90;1.80;;;;;;;;;;6258701;28;20288;-70
2023/09/07 09:30:00;;;;;;;3.63;1.88;;;;;;;;;;6257477;28;20303;-71
2023/09/07 09:33:05;;;;;;;7.18;1.75;;;;;;;;;;6257573;28;20287;-70
2023/09/07 09:36:10;;;;;;;1.90;1.70;;;;;;;;;;6257931;28;20256;-71
2023/09/07 09:39:23;;;;;;;1.75;1.75;;;;;;;;;;6257784;28;20303;-70
2023/09/07 09:42:28;;;;;;;4.05;1.80;;;;;;;;;;6258079;28;20296;-72
2023/09/07 09:45:32;;;;;;;1.88;1.80;;;;;;;;;;6257495;28;20291;-70
2023/09/07 09:48:37;;;;;;;2.30;1.60;;;;;;;;;;6256751;28;20445;-69
2023/09/07 09:51:43;;;;;;;2.47;1.90;;;;;;;;;;6258175;28;20288;-69
2023/09/07 09:54:47;;;;;;;1.67;1.58;;;;;;;;;;6257882;28;20291;-69
2023/09/07 09:57:51;;;;;;;1.77;1.65;;;;;;;;;;6257212;28;20602;-69
2023/09/07 10:00:57;;;;;;;3.25;1.75;;;;;;;;;;6261587;28;20299;-70
2023/09/07 10:04:02;;;;;;;1.73;1.70;;;;;;;;;;6260658;28;20308;-70
2023/09/07 10:07:07;;;;;;;1.55;1.55;;;;;;;;;;6262112;28;20287;-70
2023/09/07 10:10:13;;;;;;;3.47;1.73;;;;;;;;;;6261695;28;20356;-69
2023/09/07 10:13:17;;;;;;;2.13;1.90;;;;;;;;;;6261344;28;20288;-70
2023/09/07 10:16:21;;;;;;;2.08;1.70;;;;;;;;;;6262460;28;20387;-70
2023/09/07 10:19:26;;;;;;;1.95;1.90;;;;;;;;;;6261589;28;20316;-70
2023/09/07 10:22:32;;;;;;;3.30;1.80;;;;;;;;;;6262438;28;20349;-70
2023/09/07 10:25:37;;;;;;;2.60;1.60;;;;;;;;;;6261445;28;20292;-70
2023/09/07 10:28:41;;;;;;;2.03;1.92;;;;;;;;;;6261543;28;20323;-70
2023/09/07 10:31:52;;;;;;;1.90;1.90;;;;;;;;;;6261606;28;20308;-71
2023/09/07 10:34:57;;;;;;;1.85;1.77;;;;;;;;;;6261558;28;20292;-70
2023/09/07 10:38:02;;;;;;;2.08;1.88;;;;;;;;;;6261166;28;20580;-71
2023/09/07 10:41:06;;;;;;;1.50;1.50;;;;;;;;;;6260500;28;20287;-71
2023/09/07 10:44:12;;;;;;;1.70;1.70;;;;;;;;;;6260882;28;20304;-70
2023/09/07 10:47:16;;;;;;;2.50;1.80;;;;;;;;;;6261544;28;20319;-70
2023/09/07 10:50:20;;;;;;;2.20;2.05;;;;;;;;;;6260762;28;20331;-70
2023/09/07 10:53:33;;;;;;;8.77;2.03;;;;;;;;;;6276083;28;20307;-70
2023/09/07 10:56:38;;;;;;;2.25;2.10;;;;;;;;;;6262444;28;20336;-69
2023/09/07 10:59:45;;;;;;;3.17;1.85;;;;;;;;;;6260902;28;20307;-69
2023/09/07 11:02:49;;;;;;;3.42;1.85;;;;;;;;;;6261199;28;20299;-70
2023/09/07 11:05:55;;;;;;;2.28;2.00;;;;;;;;;;6260872;28;20303;-70
2023/09/07 11:09:04;;;;;;;3.55;1.80;;;;;;;;;;6260008;28;20299;-70
2023/09/07 11:12:09;;;;;;;4.30;2.05;;;;;;;;;;6260857;28;20564;-71
2023/09/07 11:15:12;;;;;;;2.00;1.90;;;;;;;;;;6259350;28;20482;-71
2023/09/07 11:18:21;;;;;;;4.53;2.13;;;;;;;;;;6260716;28;20299;-70
2023/09/07 11:21:25;;;;;;;2.97;1.83;;;;;;;;;;6260923;28;20549;-70
2023/09/07 11:24:31;;;;;;;2.60;1.80;;;;;;;;;;6260072;28;20304;-70
2023/09/07 11:27:35;;;;;;;1.70;1.60;;;;;;;;;;6260745;28;20471;-70
2023/09/07 11:30:50;;;;;;;3.28;1.90;;;;;;;;;;6259175;28;20294;-68
2023/09/07 11:33:56;;;;;;;2.08;1.77;;;;;;;;;;6259735;28;20471;-69
2023/09/07 11:37:00;;;;;;;3.08;1.98;;;;;;;;;;6260392;28;20296;-69
2023/09/07 11:40:11;;;;;;;1.92;1.55;;;;;;;;;;6259837;28;20636;-70
2023/09/07 11:43:15;;;;;;;3.42;1.80;;;;;;;;;;6259526;28;20279;-69
2023/09/07 11:46:19;;;;;;;2.20;1.60;;;;;;;;;;6260242;28;20640;-70
2023/09/07 11:49:24;;;;;;;4.75;1.45;;;;;;;;;;6259366;28;20308;-70
2023/09/07 11:52:28;;;;;;;2.90;1.80;;;;;;;;;;6260239;28;20572;-69
2023/09/07 11:55:37;;;;;;;1.65;1.55;;;;;;;;;;6259493;28;20316;-69
2023/09/07 11:58:42;;;;;;;2.08;1.83;;;;;;;;;;6259702;28;20311;-69
2023/09/07 12:01:46;;;;;;;6.90;1.58;;;;;;;;;;6259363;28;20560;-69
2023/09/07 12:04:50;;;;;;;3.72;1.73;;;;;;;;;;6274390;28;20483;-69
2023/09/07 12:07:54;;;;;;;1.63;1.58;;;;;;;;;;6259113;28;20308;-71
2023/09/07 12:10:59;;;;;;;7.45;1.60;;;;;;;;;;6259530;28;20299;-70
2023/09/07 12:14:04;;;;;;;4.45;1.40;;;;;;;;;;6258710;28;20625;-70
2023/09/07 12:17:08;;;;;;;4.82;1.55;;;;;;;;;;6259655;28;20295;-69
2023/09/07 12:20:14;;;;;;;1.63;1.40;;;;;;;;;;6258809;28;20316;-72
2023/09/07 12:23:18;;;;;;;1.75;1.65;;;;;;;;;;6257944;28;20299;-69
2023/09/07 12:26:23;;;;;;;1.70;1.60;;;;;;;;;;6259752;28;20436;-69
2023/09/07 12:29:27;;;;;;;2.53;1.70;;;;;;;;;;6258671;28;20291;-69
2023/09/07 12:32:32;;;;;;;3.30;1.45;;;;;;;;;;6259088;28;20315;-69
2023/09/07 12:35:35;;;;;;;3.03;1.50;;;;;;;;;;6258916;28;20579;-69
2023/09/07 12:38:39;;;;;;;1.40;1.40;;;;;;;;;;6257569;28;20306;-69
2023/09/07 12:41:45;;;;;;;2.25;1.50;;;;;;;;;;6259789;28;20300;-70
2023/09/07 12:44:49;;;;;;;1.33;1.33;;;;;;;;;;6258732;28;20323;-68
2023/09/07 12:47:52;;;;;;;1.77;1.40;;;;;;;;;;6257846;28;20304;-71
2023/09/07 12:50:56;;;;;;;3.80;1.45;;;;;;;;;;6259697;28;20299;-69
2023/09/07 12:54:00;;;;;;;2.83;1.70;;;;;;;;;;6258034;28;20291;-69
2023/09/07 12:57:06;;;;;;;10.07;2.03;;;;;;;;;;6259042;28;20478;-70
2023/09/07 13:00:11;;;;;;;7.72;1.92;;;;;;;;;;6258829;28;20308;-69
2023/09/07 13:03:15;;;;;;;1.85;1.50;;;;;;;;;;6256782;28;20311;-68
2023/09/07 13:06:20;;;;;;;4.25;1.73;;;;;;;;;;6258608;28;20594;-68
2023/09/07 13:09:23;;;;;;;3.60;1.70;;;;;;;;;;6257746;28;20312;-69
2023/09/07 13:12:28;;;;;;;2.92;1.70;;;;;;;;;;6258115;28;20503;-68
2023/09/07 13:15:32;;;;;;;3.75;1.60;;;;;;;;;;6258119;28;20572;-70
2023/09/07 13:18:36;;;;;;;3.55;1.60;;;;;;;;;;6258284;28;20540;-71
2023/09/07 13:21:40;;;;;;;2.78;1.92;;;;;;;;;;6258695;28;20327;-69
2023/09/07 13:24:44;;;;;;;1.77;1.60;;;;;;;;;;6258008;28;20303;-70
2023/09/07 13:27:50;;;;;;;3.17;1.80;;;;;;;;;;6258630;28;20287;-71
2023/09/07 13:30:53;;;;;;;3.38;1.67;;;;;;;;;;6257554;28;20303;-69
2023/09/07 13:33:58;;;;;;;3.83;1.70;;;;;;;;;;6262223;28;20295;-68
2023/09/07 13:37:02;;;;;;;3.90;1.67;;;;;;;;;;6262179;28;20583;-68
2023/09/07 13:40:08;;;;;;;2.17;1.80;;;;;;;;;;6262708;28;20295;-71
2023/09/07 13:43:13;;;;;;;2.45;2.25;;;;;;;;;;6262591;28;20299;-69
2023/09/07 13:46:17;;;;;;;4.93;1.80;;;;;;;;;;6263507;28;20299;-69
2023/09/07 13:49:21;;;;;;;4.65;2.10;;;;;;;;;;6261524;28;20343;-70
2023/09/07 13:52:25;;;;;;;4.10;1.77;;;;;;;;;;6263076;28;20303;-69
2023/09/07 13:55:29;;;;;;;4.97;1.50;;;;;;;;;;6262409;28;20295;-69
2023/09/07 13:58:34;;;;;;;5.30;1.80;;;;;;;;;;6277831;28;20308;-69
2023/09/07 14:01:38;;;;;;;4.55;1.60;;;;;;;;;;6262784;28;20307;-69
2023/09/07 14:04:42;;;;;;;4.68;1.70;;;;;;;;;;6261329;28;20299;-68
2023/09/07 14:07:46;;;;;;;6.20;1.50;;;;;;;;;;6262045;28;20283;-70
2023/09/07 14:10:50;;;;;;;1.90;1.80;;;;;;;;;;6261918;28;20299;-69
2023/09/07 14:13:55;;;;;;;1.63;1.52;;;;;;;;;;6262048;28;20611;-69
2023/09/07 14:17:00;;;;;;;2.63;1.60;;;;;;;;;;6262514;28;20291;-69
2023/09/07 14:20:05;;;;;;;5.20;1.80;;;;;;;;;;6261703;28;20307;-67
2023/09/07 14:23:08;;;;;;;1.85;1.55;;;;;;;;;;6260706;28;20304;-70
2023/09/07 14:26:12;;;;;;;1.60;1.52;;;;;;;;;;6262031;28;20620;-69
2023/09/07 14:29:17;;;;;;;4.00;1.88;;;;;;;;;;6261657;28;20300;-69
2023/09/07 14:32:21;;;;;;;4.93;1.60;;;;;;;;;;6261467;28;20315;-69
2023/09/07 14:35:25;;;;;;;1.67;1.50;;;;;;;;;;6260801;28;20284;-69
2023/09/07 14:38:29;;;;;;;5.30;1.70;;;;;;;;;;6261419;28;20304;-69
2023/09/07 14:41:34;;;;;;;2.10;1.45;;;;;;;;;;6261578;28;20307;-70
2023/09/07 14:44:39;;;;;;;1.70;1.60;;;;;;;;;;6260348;28;20339;-69
2023/09/07 14:47:43;;;;;;;2.00;1.30;;;;;;;;;;6261273;28;20296;-68
2023/09/07 14:50:47;;;;;;;2.30;1.75;;;;;;;;;;6260528;28;20436;-68
2023/09/07 14:53:50;;;;;;;2.08;1.40;;;;;;;;;;6260826;28;20303;-69
2023/09/07 14:56:54;;;;;;;2.67;1.50;;;;;;;;;;6261369;28;20299;-70
2023/09/07 15:00:00;;;;;;;2.13;1.52;;;;;;;;;;6259856;28;20296;-69
2023/09/07 15:03:04;;;;;;;2.58;1.35;;;;;;;;;;6259397;28;20447;-71
2023/09/07 15:06:11;;;;;;;3.38;1.60;;;;;;;;;;6261034;28;20430;-69
2023/09/07 15:09:15;;;;;;;4.30;1.50;;;;;;;;;;6260915;28;20303;-68
2023/09/07 15:12:19;;;;;;;3.15;1.30;;;;;;;;;;6260738;28;20379;-69
2023/09/07 15:15:24;;;;;;;1.25;1.17;;;;;;;;;;6260629;28;20296;-68
2023/09/07 15:18:28;;;;;;;2.28;1.90;;;;;;;;;;6260763;28;20573;-70
2023/09/07 15:21:32;;;;;;;4.47;1.75;;;;;;;;;;6260992;28;20299;-68
2023/09/07 15:24:36;;;;;;;1.60;1.50;;;;;;;;;;6260205;28;20291;-68
2023/09/07 15:27:40;;;;;;;1.35;1.27;;;;;;;;;;6260859;28;20291;-69
2023/09/07 15:30:45;;;;;;;5.10;1.17;;;;;;;;;;6260313;28;20295;-70
2023/09/07 15:33:50;;;;;;;3.10;1.60;;;;;;;;;;6259487;28;20323;-69
2023/09/07 15:36:53;;;;;;;7.85;1.50;;;;;;;;;;6260924;28;20304;-69
2023/09/07 15:39:57;;;;;;;1.20;1.20;;;;;;;;;;6260342;28;20299;-68
2023/09/07 15:43:01;;;;;;;3.25;1.67;;;;;;;;;;6260295;28;20300;-70
2023/09/07 15:46:06;;;;;;;2.35;1.42;;;;;;;;;;6260253;28;20291;-69
2023/09/07 15:49:10;;;;;;;2.15;1.75;;;;;;;;;;6259998;28;20304;-69
2023/09/07 15:52:14;;;;;;;3.38;1.65;;;;;;;;;;6260427;28;20542;-68
2023/09/07 15:55:19;;;;;;;1.70;1.60;;;;;;;;;;6258911;28;20478;-70
2023/09/07 15:58:22;;;;;;;2.22;1.50;;;;;;;;;;6259633;28;20292;-70
2023/09/07 16:01:27;;;;;;;1.35;1.33;;;;;;;;;;6260047;28;20295;-70
2023/09/07 16:04:31;;;;;;;2.50;1.70;;;;;;;;;;6259682;28;20325;-70
2023/09/07 16:07:35;;;;;;;2.45;1.52;;;;;;;;;;6260285;28;20304;-70
2023/09/07 16:10:43;;;;;;;2.03;1.45;;;;;;;;;;6259621;28;20340;-72
2023/09/07 16:13:47;;;;;;;1.75;1.65;;;;;;;;;;6260351;28;20292;-67
2023/09/07 16:16:53;;;;;;;3.33;1.27;;;;;;;;;;6260185;28;20295;-71
2023/09/07 16:19:57;;;;;;;1.55;1.45;;;;;;;;;;6259412;28;20663;-68
2023/09/07 16:23:01;;;;;;;1.20;1.20;;;;;;;;;;6259035;28;20473;-71
2023/09/07 16:26:05;;;;;;;3.80;1.50;;;;;;;;;;6259704;28;20299;-70
2023/09/07 16:29:09;;;;;;;1.80;1.70;;;;;;;;;;6258917;28;20569;-69
2023/09/07 16:32:16;;;;;;;4.28;1.75;;;;;;;;;;6259383;28;20299;-71
2023/09/07 16:35:20;;;;;;;1.85;1.42;;;;;;;;;;6259754;28;20291;-69
2023/09/07 16:38:24;;;;;;;3.58;1.40;;;;;;;;;;6258661;28;20789;-70
2023/09/07 16:41:28;;;;;;;5.55;1.40;;;;;;;;;;6259016;28;20303;-70
2023/09/07 16:44:32;;;;;;;1.88;1.75;;;;;;;;;;6258904;28;20299;-70
2023/09/07 16:47:37;;;;;;;5.30;2.20;;;;;;;;;;6258764;28;20304;-69
2023/09/07 16:50:45;;;;;;;9.63;2.20;;;;;;;;;;6258442;28;20311;-70
2023/09/07 16:53:49;;;;;;;4.05;2.47;;;;;;;;;;6258325;28;20588;-69
2023/09/07 16:56:53;;;;;;;4.63;2.38;;;;;;;;;;6260354;28;20295;-68
2023/09/07 16:59:57;;;;;;;3.33;1.73;;;;;;;;;;6259932;28;20291;-70
2023/09/07 17:03:02;;;;;;;3.33;2.00;;;;;;;;;;6259509;28;20272;-69
2023/09/07 17:06:06;;;;;;;5.78;2.20;;;;;;;;;;6260871;28;20236;-69
2023/09/07 17:09:12;;;;;;;3.17;2.00;;;;;;;;;;6259772;28;20299;-67
2023/09/07 17:12:17;;;;;;;3.65;2.45;;;;;;;;;;6259142;28;20244;-69
2023/09/07 17:15:24;;;;;;;4.68;2.22;;;;;;;;;;6259029;28;20304;-68
2023/09/07 17:18:29;;;;;;;8.82;2.75;;;;;;;;;;6259512;28;20292;-68
2023/09/07 17:21:34;;;;;;;9.45;2.20;;;;;;;;;;6259342;28;20306;-69
2023/09/07 17:24:38;;;;;;;6.70;2.20;;;;;;;;;;6257304;28;20296;-68
2023/09/07 17:27:43;;;;;;;4.45;2.38;;;;;;;;;;6261501;28;20303;-70
2023/09/07 17:30:46;;;;;;;2.25;1.80;;;;;;;;;;6261103;28;20284;-71
2023/09/07 17:33:52;;;;;;;4.57;2.10;;;;;;;;;;6261051;28;20296;-72
2023/09/07 17:36:55;;;;;;;3.17;2.10;;;;;;;;;;6261253;28;20300;-72
2023/09/07 17:40:00;;;;;;;4.32;2.17;;;;;;;;;;6259031;28;20295;-69
2023/09/07 17:43:05;;;;;;;12.38;2.30;;;;;;;;;;6258961;28;20299;-70
2023/09/07 17:46:09;;;;;;;8.55;2.17;;;;;;;;;;6257239;28;20568;-69
2023/09/07 17:49:14;;;;;;;2.17;1.80;;;;;;;;;;6258540;28;20295;-69
2023/09/07 17:52:18;;;;;;;8.77;1.95;;;;;;;;;;6258650;28;20304;-68
2023/09/07 17:55:23;;;;;;;6.93;1.75;;;;;;;;;;6257896;28;20303;-71
2023/09/07 17:58:27;;;;;;;1.83;1.80;;;;;;;;;;6257523;28;20572;-70
2023/09/07 18:01:31;;;;;;;5.38;2.90;;;;;;;;;;6258807;28;20335;-73
2023/09/07 18:04:36;;;;;;;6.03;2.50;;;;;;;;;;6258134;28;20320;-74
2023/09/07 18:07:40;;;;;;;5.82;2.35;;;;;;;;;;6258261;28;20303;-68
2023/09/07 18:10:43;;;;;;;1.92;1.83;;;;;;;;;;6257007;28;20445;-70
2023/09/07 18:13:47;;;;;;;7.32;1.80;;;;;;;;;;6257344;28;20295;-69
2023/09/07 18:16:59;;;;;;;2.90;1.70;;;;;;;;;;6258159;28;20292;-69
2023/09/07 18:20:05;;;;;;;8.00;1.92;;;;;;;;;;6260124;28;20299;-70
2023/09/07 18:23:09;;;;;;;3.80;2.00;;;;;;;;;;6257229;28;20292;-70
2023/09/07 18:26:13;;;;;;;1.90;1.58;;;;;;;;;;6237699;28;20296;-70